Pembroke, NC (28372)

9:13 AM EDT on September 05, 2015 (GMT -0400)
Lumberton Municipal | | Change Station
CLOSE
Current Station
Airport
Location: Lumberton,
Elevation: 125 ft
Nearby Weather Stations

Elev 125 ft 34.61 °N, 79.06 °W | Updated 48 minutes ago

Mostly Cloudy
Mostly Cloudy
74 °F
Feels Like 74 °F
N
9
Wind Variable Wind from North

Today
High -- | Low -- °F
--% Chance of Precip.
Yesterday
High -- | Low -- °F
Precip. -- in
6:52 AM 7:38 PM
Waning Gibbous, 49% visible
Pressure 30.10 in
Visibility 4.0 miles
Clouds Mostly Cloudy 800 ft
Dew Point 71 °F
Humidity 91%
Rainfall 0.00 in
Snow Depth Not available.
UV 1 out of 12
Pollen 8.00 out of 12
Air Quality Not available.
Flu Activity Not available.
SPECI KLBT 051225Z AUTO 01008KT 4SM BR BKN008 23/22 A3010 RMK AO2 CIG 006V011 T02330217
Pressure 30.10 in
Visibility 4.0 miles
Clouds Mostly Cloudy 800 ft
Dew Point 71 °F
Humidity 91%
Rainfall 0.00 in
Snow Depth Not available.
UV 1 out of 12
Pollen 8.00 out of 12
Air Quality Not available.
Flu Activity Not available.
SPECI KLBT 051225Z AUTO 01008KT 4SM BR BKN008 23/22 A3010 RMK AO2 CIG 006V011 T02330217

10-Day Weather Forecast

×

Almanac

Astronomy

Sep. 05, 2015 Rise Set
Actual Time
Civil Twilight
Nautical Twilight
Astronomical Twilight
Moon
Length of Visible Light
Length of Day
Tomorrow will be .
, % of the Moon is Illuminated

Today's Extremes

State Highs State Lows

Community

WunderPhotos

Upload Photos

1,852,454 photos uploaded!

WunderBlogs® & News

Nearby

Air Quality

  Air Quality AQ Index Pollutant
Not available.

Snow Depth

Station Depth Elevation

Earthquake Activity

City Distance Mag. Time & Date
Minimum magnitude displayed is 2.5.

Coastal Water Temperatures

Place Temperature

Stations

Nearby Weather Stations

Station Location Temp. Windchill Dew Point Humidity Wind Precip. Elev Updated Type